Time;durP1;ratioP1;P1;durP2;ratioP2;P2;SDS_P1;SDS_P2;PMS_P1;PMS_P2;Temp;Humidity;BMP_temperature;BMP_pressure;BME280_temperature;BME280_humidity;BME280_pressure;Samples;Min_cycle;Max_cycle;Signal;HPM_P1;HPM_P2
2022/09/03 00:01:37;;;;;;;6.25;2.63;;;24.90;68.40;;;;;;5034703;28;20541;-72
2022/09/03 00:04:11;;;;;;;10.55;2.40;;;24.90;69.40;;;;;;5033214;28;20075;-72
2022/09/03 00:07:02;;;;;;;5.30;2.42;;;24.90;69.90;;;;;;5033128;28;20045;-69
2022/09/03 00:09:43;;;;;;;5.07;2.50;;;24.80;70.60;;;;;;5025917;28;20034;-69
2022/09/03 00:12:22;;;;;;;7.65;2.72;;;24.70;70.80;;;;;;5033494;28;20028;-71
2022/09/03 00:14:54;;;;;;;3.78;2.08;;;24.70;70.40;;;;;;5033096;28;20182;-71
2022/09/03 00:17:24;;;;;;;6.93;2.88;;;24.60;72.10;;;;;;5033109;28;20437;-68
2022/09/03 00:20:17;;;;;;;5.88;2.70;;;24.60;72.10;;;;;;5033035;28;20093;-69
2022/09/03 00:22:57;;;;;;;5.83;2.40;;;24.60;71.50;;;;;;5033284;28;20024;-74
2022/09/03 00:25:55;;;;;;;5.10;2.35;;;24.50;71.60;;;;;;5033190;28;20025;-72
2022/09/03 00:28:34;;;;;;;5.70;2.10;;;24.50;71.80;;;;;;5008514;28;20072;-73
2022/09/03 00:31:37;;;;;;;8.13;2.90;;;24.40;72.60;;;;;;5033125;28;20029;-78
2022/09/03 00:34:29;;;;;;;5.70;2.80;;;24.50;71.70;;;;;;5032772;28;20486;-73
2022/09/03 00:36:56;;;;;;;4.53;2.33;;;24.50;71.80;;;;;;5024806;28;20052;-70
2022/09/03 00:39:24;;;;;;;5.95;2.40;;;24.50;72.80;;;;;;5032948;28;20490;-71
2022/09/03 00:42:08;;;;;;;5.65;2.63;;;24.50;72.70;;;;;;5032110;28;20037;-68
2022/09/03 00:45:07;;;;;;;6.03;2.70;;;24.50;72.50;;;;;;5039266;28;20130;-75
2022/09/03 00:48:09;;;;;;;4.70;2.10;;;24.50;72.40;;;;;;5039585;28;20053;-73
2022/09/03 00:50:59;;;;;;;5.65;2.60;;;24.50;72.60;;;;;;5039579;28;20468;-75
2022/09/03 00:53:56;;;;;;;6.50;2.67;;;24.50;72.60;;;;;;5021682;28;20052;-68
2022/09/03 00:56:34;;;;;;;6.75;2.30;;;24.50;72.60;;;;;;5039768;28;20021;-71
2022/09/03 00:59:23;;;;;;;5.45;2.58;;;24.50;72.80;;;;;;5039632;28;20478;-72
2022/09/03 01:02:14;;;;;;;5.53;2.60;;;24.50;72.70;;;;;;5039185;28;20025;-69
2022/09/03 01:04:53;;;;;;;5.70;2.28;;;24.50;73.10;;;;;;5039520;28;20030;-77
2022/09/03 01:07:25;;;;;;;6.97;2.75;;;24.50;72.70;;;;;;5039275;28;20402;-77
2022/09/03 01:10:11;;;;;;;4.70;2.88;;;24.50;73.20;;;;;;5039567;28;20017;-76
2022/09/03 01:12:53;;;;;;;7.95;2.90;;;24.50;72.20;;;;;;5039443;28;20025;-77
2022/09/03 01:15:53;;;;;;;7.53;3.03;;;24.50;71.90;;;;;;5039509;28;20014;-77
2022/09/03 01:18:32;;;;;;;8.35;3.30;;;24.50;71.80;;;;;;5039179;28;20037;-74
2022/09/03 01:21:07;;;;;;;9.25;3.10;;;24.40;72.40;;;;;;5039507;28;20363;-76
2022/09/03 01:24:00;;;;;;;6.53;2.80;;;24.40;71.60;;;;;;5039835;28;20112;-76
2022/09/03 01:26:46;;;;;;;10.13;3.17;;;24.40;71.30;;;;;;5039429;28;20025;-74
2022/09/03 01:29:37;;;;;;;6.55;2.88;;;24.40;71.80;;;;;;5038434;28;20048;-78
2022/09/03 01:32:16;;;;;;;6.78;2.55;;;24.40;70.60;;;;;;5039948;28;20471;-78
2022/09/03 01:35:07;;;;;;;7.40;2.75;;;24.30;70.20;;;;;;5042518;28;20095;-77
2022/09/03 01:37:41;;;;;;;7.88;3.08;;;24.20;70.00;;;;;;5039522;28;20376;-74
2022/09/03 01:40:23;;;;;;;6.30;2.70;;;24.20;70.90;;;;;;5038885;28;20111;-76
2022/09/03 01:43:10;;;;;;;6.80;2.90;;;24.30;70.80;;;;;;5038839;28;20025;-71
2022/09/03 01:46:00;;;;;;;7.78;2.75;;;24.20;69.90;;;;;;5038804;28;20029;-79
2022/09/03 01:48:47;;;;;;;12.88;3.28;;;24.20;70.50;;;;;;5038954;28;20449;-78
2022/09/03 01:51:26;;;;;;;7.88;2.85;;;24.20;70.60;;;;;;5038929;28;20026;-68
2022/09/03 01:54:25;;;;;;;8.50;3.35;;;24.20;70.00;;;;;;5037276;28;20013;-67
2022/09/03 01:57:09;;;;;;;6.30;2.80;;;24.20;70.00;;;;;;5036102;28;20100;-68
2022/09/03 01:59:44;;;;;;;7.20;3.00;;;24.10;70.00;;;;;;5035748;28;20044;-71
2022/09/03 02:02:24;;;;;;;10.63;3.40;;;24.20;70.20;;;;;;5036061;28;20018;-65
2022/09/03 02:05:06;;;;;;;7.32;3.05;;;24.20;71.30;;;;;;5035238;28;20056;-72
2022/09/03 02:07:38;;;;;;;11.35;3.10;;;24.10;71.20;;;;;;5034991;28;20049;-70
2022/09/03 02:10:32;;;;;;;8.77;3.75;;;24.10;70.70;;;;;;5035452;28;20021;-73
2022/09/03 02:13:05;;;;;;;;;;;24.00;71.40;;;;;;5027980;28;20057;-72
2022/09/03 02:15:33;;;;;;;7.40;3.13;;;24.00;70.80;;;;;;5035303;28;19912;-70
2022/09/03 02:18:02;;;;;;;8.98;3.25;;;23.90;71.30;;;;;;5035287;28;20064;-73
2022/09/03 02:20:29;;;;;;;6.05;3.05;;;23.90;71.40;;;;;;5035443;28;20424;-70
2022/09/03 02:22:56;;;;;;;6.03;3.15;;;23.80;71.40;;;;;;5035407;28;20017;-69
2022/09/03 02:25:28;;;;;;;6.82;3.00;;;23.80;71.50;;;;;;5035484;28;20500;-66
2022/09/03 02:27:54;;;;;;;10.23;3.30;;;23.90;71.60;;;;;;5035219;28;20064;-67
2022/09/03 02:30:20;;;;;;;6.03;3.60;;;23.90;71.50;;;;;;5035178;28;20482;-66
2022/09/03 02:32:46;;;;;;;5.30;2.67;;;23.90;71.30;;;;;;5035248;28;20488;-65
2022/09/03 02:35:12;;;;;;;10.95;3.00;;;23.90;71.40;;;;;;5035061;28;20026;-68
2022/09/03 02:37:37;;;;;;;6.72;3.10;;;23.90;71.40;;;;;;5040673;28;20497;-74
2022/09/03 02:40:08;;;;;;;6.00;3.15;;;23.80;71.20;;;;;;5035178;28;20022;-68
2022/09/03 02:42:37;;;;;;;7.55;3.20;;;23.80;71.20;;;;;;5035040;28;20037;-73
2022/09/03 02:45:18;;;;;;;35.80;4.35;;;23.80;70.50;;;;;;5034802;28;20028;-77
2022/09/03 02:47:46;;;;;;;9.02;3.78;;;23.90;70.50;;;;;;5034872;28;20052;-71
2022/09/03 02:50:12;;;;;;;6.43;3.10;;;23.80;71.00;;;;;;5034937;28;20026;-73
2022/09/03 02:52:38;;;;;;;5.65;3.10;;;23.80;70.80;;;;;;5034699;28;20099;-68
2022/09/03 02:55:04;;;;;;;8.45;3.53;;;23.80;70.90;;;;;;5034789;28;20552;-75
2022/09/03 02:57:35;;;;;;;9.77;3.50;;;23.90;70.90;;;;;;5034439;28;20051;-71
2022/09/03 03:00:02;;;;;;;8.82;3.25;;;23.90;71.10;;;;;;5034648;28;20100;-79
2022/09/03 03:02:29;;;;;;;9.45;4.07;;;23.90;71.00;;;;;;5034670;28;20021;-69
2022/09/03 03:04:55;;;;;;;6.55;3.28;;;23.80;71.20;;;;;;5034316;28;20022;-74
2022/09/03 03:07:21;;;;;;;9.40;3.33;;;23.80;71.40;;;;;;5034462;28;20195;-77
2022/09/03 03:09:47;;;;;;;13.40;3.45;;;23.80;71.30;;;;;;5034241;28;20033;-74
2022/09/03 03:12:12;;;;;;;6.93;3.42;;;23.80;71.40;;;;;;5033219;28;20025;-79
2022/09/03 03:14:38;;;;;;;10.02;3.72;;;23.80;71.70;;;;;;5034236;28;20029;-69
2022/09/03 03:17:04;;;;;;;9.05;3.58;;;23.80;71.70;;;;;;5034280;28;20103;-77
2022/09/03 03:19:29;;;;;;;6.47;3.47;;;23.70;71.50;;;;;;5034049;28;20380;-79
2022/09/03 03:21:55;;;;;;;7.15;3.97;;;23.70;71.60;;;;;;5034387;28;20096;-78
2022/09/03 03:24:21;;;;;;;8.88;3.88;;;23.70;71.70;;;;;;5034152;28;20469;-79
2022/09/03 03:26:47;;;;;;;6.90;3.70;;;23.70;71.80;;;;;;5034102;28;20021;-77
2022/09/03 03:29:19;;;;;;;6.72;3.63;;;23.70;71.90;;;;;;5034136;28;20052;-78
2022/09/03 03:31:46;;;;;;;6.18;3.80;;;23.60;72.00;;;;;;5033042;28;20029;-79
2022/09/03 03:34:12;;;;;;;7.80;3.92;;;23.60;71.70;;;;;;5031835;28;20080;-80
2022/09/03 03:36:37;;;;;;;11.95;4.68;;;23.60;72.20;;;;;;5033929;28;20026;-79
2022/09/03 03:39:05;;;;;;;7.63;3.88;;;23.60;72.50;;;;;;5033601;28;20460;-79
2022/09/03 03:41:35;;;;;;;9.52;4.20;;;23.50;72.40;;;;;;5033889;28;20024;-79
2022/09/03 03:44:03;;;;;;;7.75;4.10;;;23.50;72.70;;;;;;5033919;28;20108;-76
2022/09/03 03:46:35;;;;;;;7.88;3.92;;;23.50;72.90;;;;;;5034135;28;20092;-80
2022/09/03 03:49:01;;;;;;;8.52;4.32;;;23.50;73.00;;;;;;5033918;28;20159;-68
2022/09/03 03:51:27;;;;;;;12.88;5.20;;;23.50;73.20;;;;;;5036023;28;20057;-66
2022/09/03 03:53:55;;;;;;;8.30;4.00;;;23.50;73.20;;;;;;5036662;28;20029;-69
2022/09/03 03:56:22;;;;;;;12.55;4.82;;;23.50;73.40;;;;;;5033527;28;20025;-69
2022/09/03 03:58:50;;;;;;;11.18;4.00;;;23.60;73.50;;;;;;5033477;28;20053;-71
2022/09/03 04:01:19;;;;;;;9.38;4.10;;;23.60;73.60;;;;;;5033853;28;20018;-75
2022/09/03 04:03:44;;;;;;;12.88;4.65;;;23.60;73.60;;;;;;5035142;28;20040;-67
2022/09/03 04:06:12;;;;;;;9.15;4.00;;;23.60;73.70;;;;;;5035026;28;20406;-76
2022/09/03 04:08:40;;;;;;;9.55;4.40;;;23.70;73.60;;;;;;5033940;28;20025;-71
2022/09/03 04:11:14;;;;;;;9.05;3.90;;;23.70;73.80;;;;;;5034171;28;20029;-67
2022/09/03 04:13:40;;;;;;;;;;;23.70;73.90;;;;;;5033873;28;20104;-70
2022/09/03 04:16:16;;;;;;;13.02;8.50;;;23.70;73.80;;;;;;5034209;28;19912;-70
2022/09/03 04:18:42;;;;;;;7.53;4.18;;;23.70;73.60;;;;;;5033907;28;20099;-69
2022/09/03 04:21:11;;;;;;;9.15;4.05;;;23.70;73.70;;;;;;5034181;28;20489;-68
2022/09/03 04:23:42;;;;;;;10.30;7.03;;;23.70;73.80;;;;;;5033175;28;20048;-66
2022/09/03 04:26:10;;;;;;;8.35;4.50;;;23.70;74.20;;;;;;5034205;28;20026;-66
2022/09/03 04:28:38;;;;;;;7.25;4.20;;;23.70;74.30;;;;;;5033508;28;20101;-69
2022/09/03 04:31:06;;;;;;;10.68;4.13;;;23.70;74.30;;;;;;5031955;28;20030;-71
2022/09/03 04:33:34;;;;;;;9.60;5.18;;;23.70;74.70;;;;;;5032827;28;20087;-68
2022/09/03 04:36:10;;;;;;;13.43;6.65;;;23.70;74.60;;;;;;5032796;28;20430;-67
2022/09/03 04:38:38;;;;;;;8.13;4.07;;;23.70;74.50;;;;;;5033048;28;20033;-67
2022/09/03 04:41:05;;;;;;;10.50;4.28;;;23.70;75.00;;;;;;5032815;28;20014;-68
2022/09/03 04:43:32;;;;;;;6.78;3.88;;;23.60;74.90;;;;;;5032824;28;20048;-65
2022/09/03 04:46:03;;;;;;;9.85;4.05;;;23.70;75.00;;;;;;5032726;28;20036;-66
2022/09/03 04:48:31;;;;;;;10.00;4.20;;;23.70;75.20;;;;;;5032745;28;20386;-69
2022/09/03 04:51:04;;;;;;;11.82;3.90;;;23.70;75.30;;;;;;5032997;28;20394;-67
2022/09/03 04:53:37;;;;;;;7.50;3.85;;;23.60;75.40;;;;;;5032507;28;20124;-74
2022/09/03 04:56:11;;;;;;;6.50;3.60;;;23.60;75.70;;;;;;5032731;28;20378;-68
2022/09/03 04:58:37;;;;;;;10.20;5.20;;;23.60;75.00;;;;;;5031659;28;20042;-67
2022/09/03 05:01:10;;;;;;;8.85;4.20;;;23.60;75.20;;;;;;5032629;28;20025;-66
2022/09/03 05:03:36;;;;;;;13.20;3.72;;;23.70;75.10;;;;;;5032797;28;20017;-76
2022/09/03 05:06:05;;;;;;;11.20;4.15;;;23.70;75.40;;;;;;5032613;28;20049;-73
2022/09/03 05:08:31;;;;;;;9.27;3.50;;;23.70;75.20;;;;;;5032749;28;20030;-75
2022/09/03 05:11:01;;;;;;;6.93;3.35;;;23.80;75.10;;;;;;5032736;28;20034;-73
2022/09/03 05:13:28;;;;;;;10.77;3.08;;;23.80;75.10;;;;;;5032639;28;20117;-74
2022/09/03 05:16:02;;;;;;;8.57;3.80;;;23.80;75.80;;;;;;5032547;28;20037;-74
2022/09/03 05:18:29;;;;;;;7.30;3.47;;;23.90;75.10;;;;;;5032236;28;20382;-72
2022/09/03 05:20:59;;;;;;;8.77;3.53;;;23.90;74.70;;;;;;5032671;28;20034;-67
2022/09/03 05:23:26;;;;;;;9.27;3.40;;;24.00;74.60;;;;;;5032718;28;20029;-66
2022/09/03 05:26:01;;;;;;;10.32;3.58;;;24.00;74.50;;;;;;5032594;28;20426;-69
2022/09/03 05:28:29;;;;;;;10.93;3.58;;;24.10;74.60;;;;;;5032652;28;20563;-66
2022/09/03 05:31:20;;;;;;;7.55;3.55;;;24.20;74.40;;;;;;5036035;28;20324;-72
2022/09/03 05:33:50;;;;;;;7.57;3.33;;;24.20;74.20;;;;;;5034766;28;20064;-70
2022/09/03 05:36:21;;;;;;;6.88;2.78;;;24.30;73.80;;;;;;5044843;28;20032;-71
2022/09/03 05:38:47;;;;;;;8.35;3.20;;;24.50;73.60;;;;;;5038588;28;20368;-77
2022/09/03 05:41:13;;;;;;;9.57;3.15;;;24.50;73.50;;;;;;5036440;28;20466;-68
2022/09/03 05:43:40;;;;;;;6.60;2.78;;;24.60;73.40;;;;;;5036080;28;20029;-76
2022/09/03 05:46:10;;;;;;;11.95;3.65;;;24.60;73.30;;;;;;5036087;28;20032;-69
2022/09/03 05:48:41;;;;;;;9.38;3.20;;;24.50;73.50;;;;;;5034654;28;20041;-73
2022/09/03 05:51:18;;;;;;;6.10;2.67;;;24.60;73.60;;;;;;5035976;28;20025;-72
2022/09/03 05:53:52;;;;;;;8.38;2.95;;;24.50;73.50;;;;;;5035866;28;20083;-75
2022/09/03 05:56:19;;;;;;;;;;;24.40;73.50;;;;;;5036432;28;20044;-66
2022/09/03 05:58:50;;;;;;;8.98;2.80;;;24.30;73.80;;;;;;5035869;28;19959;-75
2022/09/03 06:01:30;;;;;;;8.15;2.83;;;24.30;73.90;;;;;;5036039;28;20052;-76
2022/09/03 06:04:02;;;;;;;7.57;3.28;;;24.20;74.00;;;;;;5035864;28;20037;-78
2022/09/03 06:06:30;;;;;;;9.63;3.10;;;24.10;74.30;;;;;;5036323;28;20061;-70
2022/09/03 06:08:58;;;;;;;8.73;3.10;;;24.10;74.40;;;;;;5043300;28;20092;-66
2022/09/03 06:11:26;;;;;;;8.23;3.10;;;24.10;74.60;;;;;;5041526;28;20340;-69
2022/09/03 06:13:59;;;;;;;7.40;3.10;;;24.00;74.60;;;;;;5035680;28;20036;-77
2022/09/03 06:16:24;;;;;;;8.27;3.10;;;24.00;75.00;;;;;;5034704;28;20029;-69
2022/09/03 06:18:50;;;;;;;8.63;3.30;;;24.10;75.00;;;;;;5036351;28;20063;-74
2022/09/03 06:21:16;;;;;;;5.97;3.30;;;24.10;74.90;;;;;;5036102;28;20022;-74
2022/09/03 06:23:42;;;;;;;5.88;2.88;;;24.10;74.90;;;;;;5035778;28;20029;-77
2022/09/03 06:26:10;;;;;;;11.15;3.00;;;24.20;74.90;;;;;;5035602;28;20022;-71
2022/09/03 06:28:37;;;;;;;5.82;2.55;;;24.20;74.90;;;;;;5035571;28;20105;-66
2022/09/03 06:31:06;;;;;;;11.85;2.83;;;24.10;74.60;;;;;;5035824;28;20462;-71
2022/09/03 06:33:33;;;;;;;17.05;3.10;;;24.20;74.80;;;;;;5035650;28;20030;-69
2022/09/03 06:36:01;;;;;;;7.07;3.35;;;24.20;74.50;;;;;;5035599;28;20029;-68
2022/09/03 06:38:30;;;;;;;7.95;2.50;;;24.40;74.40;;;;;;5035069;28;20051;-65
2022/09/03 06:41:02;;;;;;;10.65;3.35;;;24.40;74.20;;;;;;5034720;28;20104;-68
2022/09/03 06:43:30;;;;;;;12.00;3.22;;;24.50;73.80;;;;;;5035286;28;20030;-70
2022/09/03 06:45:57;;;;;;;8.70;3.33;;;24.50;73.70;;;;;;5033838;28;20032;-68
2022/09/03 06:48:24;;;;;;;7.13;3.47;;;24.60;73.60;;;;;;5037070;28;20056;-67
2022/09/03 06:51:01;;;;;;;9.82;3.90;;;24.70;74.00;;;;;;5040056;28;20021;-68
2022/09/03 06:53:29;;;;;;;12.63;3.63;;;24.70;72.50;;;;;;5036919;28;20025;-68
2022/09/03 06:55:59;;;;;;;6.38;3.40;;;24.70;73.10;;;;;;5035336;28;20029;-72
2022/09/03 06:58:29;;;;;;;7.22;3.45;;;24.80;72.20;;;;;;5034685;28;20029;-68
2022/09/03 07:01:01;;;;;;;9.32;3.60;;;24.90;73.60;;;;;;5034664;28;20033;-70
2022/09/03 07:03:27;;;;;;;8.95;3.15;;;25.00;72.50;;;;;;5033157;28;20372;-67
2022/09/03 07:05:53;;;;;;;12.38;3.30;;;25.30;71.90;;;;;;5034192;28;20517;-67
2022/09/03 07:08:18;;;;;;;9.30;3.97;;;25.30;71.10;;;;;;5034264;28;20029;-67
2022/09/03 07:11:08;;;;;;;10.57;3.50;;;25.50;71.30;;;;;;5033975;28;20062;-66
2022/09/03 07:13:40;;;;;;;13.82;3.28;;;25.50;70.70;;;;;;5033954;28;20064;-67
2022/09/03 07:16:09;;;;;;;6.15;2.70;;;25.60;70.60;;;;;;5033985;28;20163;-68
2022/09/03 07:18:35;;;;;;;6.97;3.03;;;25.80;70.60;;;;;;5033895;28;20564;-68
2022/09/03 07:21:06;;;;;;;11.38;2.97;;;25.90;70.10;;;;;;5034040;28;20025;-69
2022/09/03 07:23:32;;;;;;;13.95;3.03;;;26.10;68.70;;;;;;5034437;28;20370;-66
2022/09/03 07:26:01;;;;;;;7.07;2.78;;;26.10;69.40;;;;;;5033864;28;20163;-68
2022/09/03 07:28:27;;;;;;;8.30;2.70;;;26.10;69.10;;;;;;5033784;28;20022;-66
2022/09/03 07:30:59;;;;;;;10.13;2.63;;;26.00;69.30;;;;;;5032445;28;20112;-69
2022/09/03 07:33:25;;;;;;;5.72;2.70;;;26.00;69.10;;;;;;5034287;28;20104;-72
2022/09/03 07:35:51;;;;;;;6.63;2.70;;;26.10;69.50;;;;;;5033616;28;20032;-75
2022/09/03 07:38:18;;;;;;;7.82;2.70;;;26.10;69.50;;;;;;5034217;28;20037;-68
2022/09/03 07:40:45;;;;;;;6.03;2.60;;;26.10;69.50;;;;;;5033658;28;20029;-70
2022/09/03 07:43:15;;;;;;;6.70;2.75;;;26.20;69.80;;;;;;5033711;28;20116;-78
2022/09/03 07:45:44;;;;;;;6.55;2.78;;;26.30;69.70;;;;;;5033834;28;20490;-73
2022/09/03 07:48:10;;;;;;;7.47;2.80;;;26.30;69.60;;;;;;5033724;28;20056;-76
2022/09/03 07:50:39;;;;;;;9.95;2.97;;;26.30;69.80;;;;;;5033775;28;20064;-72
2022/09/03 07:53:04;;;;;;;9.10;2.85;;;26.30;69.20;;;;;;5033007;28;20022;-79
2022/09/03 07:55:31;;;;;;;5.82;2.72;;;26.30;70.50;;;;;;5033612;28;20100;-75
2022/09/03 07:57:58;;;;;;;10.23;3.47;;;26.30;70.60;;;;;;5033282;28;20235;-75
2022/09/03 08:00:24;;;;;;;8.00;2.70;;;26.30;71.30;;;;;;5032207;28;20046;-68
2022/09/03 08:02:53;;;;;;;10.73;3.35;;;26.30;71.60;;;;;;5033601;28;20037;-72
2022/09/03 08:05:20;;;;;;;6.00;2.92;;;26.30;71.90;;;;;;5033198;28;20033;-76
2022/09/03 08:07:47;;;;;;;10.18;2.85;;;26.30;72.10;;;;;;5033998;28;20025;-70
2022/09/03 08:10:14;;;;;;;7.82;2.58;;;26.30;72.40;;;;;;5033598;28;20033;-74
2022/09/03 08:12:39;;;;;;;7.00;3.05;;;26.30;72.70;;;;;;5033727;28;20026;-75
2022/09/03 08:15:07;;;;;;;5.40;2.50;;;26.40;72.80;;;;;;5033442;28;20044;-74
2022/09/03 08:17:33;;;;;;;7.03;2.60;;;26.40;72.60;;;;;;5033817;28;20355;-78
2022/09/03 08:19:59;;;;;;;6.70;2.70;;;26.40;72.80;;;;;;5033188;28;20037;-75
2022/09/03 08:22:25;;;;;;;8.65;2.50;;;26.50;73.00;;;;;;5033606;28;20022;-78
2022/09/03 08:24:53;;;;;;;9.75;3.05;;;26.50;72.80;;;;;;5033582;28;20029;-75
2022/09/03 08:27:23;;;;;;;5.55;2.80;;;26.60;73.00;;;;;;5033952;28;20026;-74
2022/09/03 08:29:48;;;;;;;7.78;3.13;;;26.60;72.80;;;;;;5037048;28;20359;-74
2022/09/03 08:32:14;;;;;;;9.02;2.83;;;26.60;72.80;;;;;;5015900;28;20500;-71
2022/09/03 08:34:40;;;;;;;7.50;3.10;;;26.60;73.00;;;;;;5033126;28;20032;-73
2022/09/03 08:37:08;;;;;;;8.02;4.75;;;26.50;73.50;;;;;;5032905;28;20044;-71
2022/09/03 08:39:34;;;;;;;10.75;5.22;;;26.50;73.60;;;;;;5032924;28;20034;-71
2022/09/03 08:42:03;;;;;;;8.02;3.50;;;26.50;73.70;;;;;;5031819;28;20071;-73
2022/09/03 08:44:47;;;;;;;6.68;2.95;;;26.50;73.90;;;;;;5033206;28;20035;-78
2022/09/03 08:47:19;;;;;;;;;;;26.50;73.60;;;;;;5033453;28;20046;-74
2022/09/03 08:49:59;;;;;;;11.20;3.45;;;26.50;74.80;;;;;;5033021;28;19905;-72
2022/09/03 08:52:37;;;;;;;8.38;2.97;;;26.50;74.40;;;;;;5032734;28;20025;-70
2022/09/03 08:55:16;;;;;;;5.13;2.80;;;26.40;74.70;;;;;;5032600;28;20024;-75
2022/09/03 08:57:49;;;;;;;10.57;3.38;;;26.40;75.50;;;;;;5015573;28;20410;-74
2022/09/03 09:00:16;;;;;;;8.20;3.85;;;26.40;75.40;;;;;;5033441;28;20111;-69
2022/09/03 09:03:06;;;;;;;7.60;3.20;;;26.50;76.00;;;;;;5032918;28;20018;-80
2022/09/03 09:05:54;;;;;;;7.97;3.33;;;26.50;75.50;;;;;;5037209;28;20124;-81
2022/09/03 09:08:31;;;;;;;12.00;3.22;;;26.50;76.30;;;;;;5036597;28;20057;-79
2022/09/03 09:11:19;;;;;;;11.35;3.10;;;26.60;75.70;;;;;;5035444;28;20053;-78
2022/09/03 09:14:02;;;;;;;9.88;2.97;;;26.60;76.40;;;;;;5036587;28;20041;-67
2022/09/03 09:17:12;;;;;;;6.55;2.78;;;26.60;76.30;;;;;;5036533;28;20025;-69
2022/09/03 09:20:20;;;;;;;8.40;3.25;;;26.50;76.60;;;;;;5033290;28;20128;-78
2022/09/03 09:22:57;;;;;;;7.10;3.40;;;26.50;77.00;;;;;;5036649;28;20029;-79
2022/09/03 09:25:25;;;;;;;12.20;4.07;;;26.50;77.60;;;;;;5036537;28;20048;-76
2022/09/03 09:28:14;;;;;;;15.65;4.60;;;26.30;78.20;;;;;;5036155;28;20116;-66
2022/09/03 09:30:41;;;;;;;12.10;4.05;;;26.20;78.70;;;;;;5035190;28;20025;-68
2022/09/03 09:33:07;;;;;;;13.55;4.55;;;26.00;79.10;;;;;;5036168;28;20426;-65
2022/09/03 09:35:32;;;;;;;11.93;4.20;;;25.80;80.00;;;;;;5036074;28;20076;-67
2022/09/03 09:37:59;;;;;;;12.45;4.20;;;25.70;81.00;;;;;;5035690;28;20445;-71
2022/09/03 09:40:35;;;;;;;14.68;4.35;;;25.60;81.70;;;;;;5035555;28;20052;-70
2022/09/03 09:43:11;;;;;;;12.50;4.78;;;25.50;82.70;;;;;;5035166;28;20068;-68
2022/09/03 09:45:39;;;;;;;11.73;4.40;;;25.50;83.20;;;;;;5035630;28;20041;-69
2022/09/03 09:48:30;;;;;;;11.13;4.90;;;25.50;82.40;;;;;;5035504;28;20469;-68
2022/09/03 09:51:05;;;;;;;10.50;4.10;;;25.40;83.50;;;;;;5035511;28;20112;-67
2022/09/03 09:53:31;;;;;;;8.65;4.65;;;25.40;82.90;;;;;;5035858;28;20149;-68
2022/09/03 09:55:59;;;;;;;6.72;3.65;;;25.40;83.60;;;;;;5035945;28;20056;-69
2022/09/03 09:58:29;;;;;;;11.63;4.80;;;25.40;83.50;;;;;;5035394;28;20061;-68
2022/09/03 10:01:13;;;;;;;10.10;3.90;;;25.50;82.70;;;;;;5035712;28;20049;-68
2022/09/03 10:03:54;;;;;;;12.27;4.00;;;25.60;82.90;;;;;;5035401;28;20026;-71
2022/09/03 10:09:11;;;;;;;7.82;3.63;;;25.80;82.30;;;;;;5035778;28;20059;-68
2022/09/03 10:11:39;;;;;;;10.25;3.95;;;25.90;82.50;;;;;;5036184;28;20417;-67
2022/09/03 10:14:12;;;;;;;8.82;4.40;;;26.00;82.00;;;;;;5034144;28;20080;-73
2022/09/03 10:16:47;;;;;;;8.57;4.95;;;26.10;81.90;;;;;;5034344;28;20098;-67
2022/09/03 10:19:39;;;;;;;14.45;5.20;;;26.10;81.60;;;;;;5034699;28;20453;-67
2022/09/03 10:22:11;;;;;;;20.48;11.95;;;26.30;81.90;;;;;;5026926;28;20030;-67
2022/09/03 10:24:56;;;;;;;8.50;4.60;;;26.50;80.90;;;;;;5035203;28;20101;-71
2022/09/03 10:27:22;;;;;;;7.85;4.07;;;26.60;80.50;;;;;;5035183;28;20041;-71
2022/09/03 10:29:49;;;;;;;9.48;3.97;;;26.70;80.00;;;;;;5035207;28;20022;-69
2022/09/03 10:32:24;;;;;;;7.78;3.95;;;26.90;79.70;;;;;;5017256;28;20056;-68
2022/09/03 10:35:19;;;;;;;7.15;3.47;;;27.10;79.20;;;;;;5036213;28;20036;-71
2022/09/03 10:38:10;;;;;;;9.18;3.53;;;27.20;78.20;;;;;;5024887;28;20371;-71
2022/09/03 10:40:56;;;;;;;8.82;3.95;;;27.20;76.80;;;;;;5034852;28;20038;-72
2022/09/03 10:43:41;;;;;;;12.43;3.53;;;27.30;77.10;;;;;;5034996;28;20017;-72
2022/09/03 10:46:21;;;;;;;6.03;2.97;;;27.50;75.70;;;;;;5034975;28;20044;-72
2022/09/03 10:49:09;;;;;;;8.32;3.38;;;27.70;74.40;;;;;;5036253;28;20021;-72
2022/09/03 10:51:46;;;;;;;8.23;3.05;;;27.90;73.70;;;;;;5035080;28;20037;-75
2022/09/03 10:54:35;;;;;;;10.77;4.97;;;28.00;72.80;;;;;;5034783;28;20479;-75
2022/09/03 10:57:29;;;;;;;6.45;4.10;;;28.20;72.70;;;;;;5016990;28;20032;-76
2022/09/03 11:00:11;;;;;;;8.35;3.47;;;28.40;72.00;;;;;;5034717;28;20033;-82
2022/09/03 11:03:15;;;;;;;5.13;2.20;;;28.60;71.90;;;;;;5034600;28;20032;-71
2022/09/03 11:06:06;;;;;;;7.05;2.58;;;28.60;69.80;;;;;;5033847;28;20100;-73
2022/09/03 11:08:33;;;;;;;5.13;2.20;;;28.60;69.60;;;;;;5034398;28;20087;-75
2022/09/03 11:11:42;;;;;;;5.68;2.20;;;28.50;69.50;;;;;;5034087;28;20497;-69
2022/09/03 11:14:12;;;;;;;4.10;2.17;;;28.60;69.00;;;;;;5034133;28;20108;-79
2022/09/03 11:16:45;;;;;;;4.80;2.25;;;28.40;69.10;;;;;;5033956;28;20021;-73
2022/09/03 11:19:17;;;;;;;7.50;2.60;;;28.40;69.20;;;;;;5034188;28;20355;-77
2022/09/03 11:21:49;;;;;;;5.73;2.83;;;28.60;68.80;;;;;;5035532;28;20489;-83
2022/09/03 11:24:26;;;;;;;5.13;2.78;;;28.80;68.30;;;;;;5035001;28;20751;-81
2022/09/03 11:27:04;;;;;;;7.93;3.50;;;28.90;67.00;;;;;;5036213;28;20033;-79
2022/09/03 11:29:49;;;;;;;6.03;2.00;;;29.20;66.60;;;;;;5038580;28;20092;-82
2022/09/03 11:32:18;;;;;;;5.20;2.47;;;29.30;65.30;;;;;;5043718;28;20061;-81
2022/09/03 11:34:48;;;;;;;3.90;2.20;;;29.20;65.00;;;;;;5039502;28;20031;-81
2022/09/03 11:37:21;;;;;;;6.47;2.30;;;29.30;65.00;;;;;;5038345;28;20053;-79
2022/09/03 11:39:58;;;;;;;4.33;2.13;;;29.20;64.80;;;;;;5036483;28;20036;-72
2022/09/03 11:42:30;;;;;;;5.40;2.42;;;29.20;65.30;;;;;;5035619;28;20022;-79
2022/09/03 11:45:22;;;;;;;7.93;2.60;;;29.20;65.00;;;;;;5035537;28;20083;-79
2022/09/03 11:47:49;;;;;;;5.65;2.35;;;29.10;65.30;;;;;;5034789;28;20036;-80
2022/09/03 11:50:23;;;;;;;5.05;2.45;;;29.00;64.00;;;;;;5017831;28;20025;-78
2022/09/03 11:52:52;;;;;;;9.00;2.67;;;29.10;64.20;;;;;;5015969;28;20362;-66
2022/09/03 11:55:31;;;;;;;6.93;2.30;;;29.10;64.50;;;;;;5033336;28;20083;-66
2022/09/03 11:57:57;;;;;;;4.95;2.20;;;29.10;64.30;;;;;;5033378;28;20100;-67
2022/09/03 12:00:23;;;;;;;7.68;2.10;;;29.10;64.40;;;;;;5033615;28;20026;-73
2022/09/03 12:03:00;;;;;;;6.00;1.90;;;29.10;64.40;;;;;;5016111;28;20087;-67
2022/09/03 12:05:57;;;;;;;3.80;2.22;;;29.10;64.00;;;;;;5033293;28;20103;-68
2022/09/03 12:08:47;;;;;;;6.82;1.80;;;29.30;63.40;;;;;;5015804;28;20056;-67
2022/09/03 12:11:51;;;;;;;5.72;1.60;;;29.50;63.00;;;;;;5015606;28;20036;-71
2022/09/03 12:14:29;;;;;;;6.25;1.77;;;29.80;61.20;;;;;;5033319;28;20078;-68
2022/09/03 12:17:13;;;;;;;3.85;1.67;;;30.00;61.00;;;;;;5033481;28;20143;-67
2022/09/03 12:19:49;;;;;;;5.00;2.00;;;30.00;60.70;;;;;;5032982;28;20505;-66
2022/09/03 12:22:17;;;;;;;4.00;1.70;;;30.20;59.90;;;;;;5033312;28;20033;-67
2022/09/03 12:24:43;;;;;;;6.32;1.90;;;30.30;59.30;;;;;;5033156;28;20014;-66
2022/09/03 12:27:21;;;;;;;4.05;1.60;;;30.40;58.20;;;;;;5033071;28;20030;-66
2022/09/03 12:29:58;;;;;;;3.42;1.55;;;30.40;58.10;;;;;;5014938;28;20497;-68
2022/09/03 12:32:50;;;;;;;3.58;1.75;;;30.40;57.90;;;;;;5033237;28;20467;-70
2022/09/03 12:35:19;;;;;;;3.28;1.70;;;30.50;57.00;;;;;;5032894;28;20033;-70
2022/09/03 12:37:46;;;;;;;3.13;1.77;;;30.60;56.50;;;;;;5032551;28;20041;-69
2022/09/03 12:40:22;;;;;;;4.47;1.70;;;30.60;54.80;;;;;;5033190;28;20033;-68
2022/09/03 12:42:50;;;;;;;5.70;2.10;;;30.60;55.10;;;;;;5032751;28;20105;-73
2022/09/03 12:45:27;;;;;;;3.28;1.80;;;30.60;56.70;;;;;;5031653;28;20030;-70
2022/09/03 12:47:52;;;;;;;4.13;1.80;;;30.50;56.70;;;;;;5033192;28;20021;-68
2022/09/03 12:50:23;;;;;;;5.70;2.00;;;30.50;56.10;;;;;;5031576;28;20463;-67
2022/09/03 12:53:00;;;;;;;15.18;12.38;;;30.50;54.20;;;;;;5032905;28;20029;-67
2022/09/03 12:55:41;;;;;;;7.18;5.07;;;30.30;53.80;;;;;;5032844;28;20152;-69
2022/09/03 12:58:34;;;;;;;5.07;2.60;;;30.20;53.90;;;;;;5032855;28;20402;-67
2022/09/03 13:01:11;;;;;;;6.35;2.00;;;30.50;53.70;;;;;;5032935;28;20167;-70
2022/09/03 13:03:58;;;;;;;4.22;2.05;;;30.70;53.60;;;;;;5032515;28;20033;-68
2022/09/03 13:06:28;;;;;;;3.03;1.73;;;30.90;53.20;;;;;;5027182;28;20124;-66
2022/09/03 13:08:59;;;;;;;4.63;1.92;;;31.10;54.50;;;;;;5029434;28;20028;-69
2022/09/03 13:11:31;;;;;;;4.03;1.80;;;31.30;53.90;;;;;;5032837;28;20385;-69
2022/09/03 13:14:05;;;;;;;2.45;1.50;;;31.30;51.80;;;;;;5017506;28;20168;-68
2022/09/03 13:17:04;;;;;;;6.93;2.00;;;31.40;51.30;;;;;;5014039;28;20097;-77
2022/09/03 13:20:11;;;;;;;4.28;1.88;;;31.60;50.90;;;;;;5000724;28;20076;-70
2022/09/03 13:22:40;;;;;;;3.80;1.63;;;31.80;49.70;;;;;;4992735;28;20036;-80
2022/09/03 13:25:36;;;;;;;3.25;1.73;;;31.90;51.40;;;;;;5013315;28;20041;-75